Time;durP1;ratioP1;P1;durP2;ratioP2;P2;SDS_P1;SDS_P2;PMS_P1;PMS_P2;Temp;Humidity;BMP_temperature;BMP_pressure;BME280_temperature;BME280_humidity;BME280_pressure;Samples;Min_cycle;Max_cycle;Signal;HPM_P1;HPM_P2
2021/12/03 00:01:56;;;;;;;6.40;5.20;;;;;;;-145.06;0.00;60892.56;4821260;28;20038;-91
2021/12/03 00:04:35;;;;;;;9.55;6.20;;;;;;;-145.06;0.00;60892.56;4814326;28;20037;-90
2021/12/03 00:07:14;;;;;;;8.30;5.77;;;;;;;-145.06;0.00;60892.56;4828284;28;20472;-90
2021/12/03 00:09:53;;;;;;;9.93;6.25;;;;;;;-145.06;0.00;60892.56;4826179;28;20280;-90
2021/12/03 00:12:33;;;;;;;6.72;5.20;;;;;;;-145.06;0.00;60892.56;4838400;28;20038;-89
2021/12/03 00:15:13;;;;;;;8.18;5.50;;;;;;;-145.06;0.00;60892.56;4824629;28;20049;-89
2021/12/03 00:17:53;;;;;;;6.30;4.53;;;;;;;-145.06;0.00;60892.56;4849737;28;20041;-89
2021/12/03 00:20:35;;;;;;;7.70;5.47;;;;;;;-145.06;0.00;60892.56;4828914;28;20037;-89
2021/12/03 00:23:15;;;;;;;7.18;4.57;;;;;;;-145.06;0.00;60892.56;4820000;28;20030;-89
2021/12/03 00:25:56;;;;;;;9.18;4.95;;;;;;;-145.06;0.00;60892.56;4812249;28;20034;-89
2021/12/03 00:28:38;;;;;;;6.55;4.63;;;;;;;10.68;0.00;60892.56;4825929;28;20377;-87
2021/12/03 00:31:17;;;;;;;7.43;4.90;;;;;;;2.89;0.00;60892.56;4823581;28;20038;-88
2021/12/03 00:33:56;;;;;;;6.60;4.30;;;;;;;2.73;0.00;60892.56;4819589;28;20029;-87
2021/12/03 00:36:35;;;;;;;6.65;4.57;;;;;;;-145.06;0.00;60892.56;4810369;28;20034;-89
2021/12/03 00:39:14;;;;;;;6.05;4.47;;;;;;;-145.06;0.00;60892.56;4824010;28;20505;-89
2021/12/03 00:41:59;;;;;;;6.15;4.28;;;;;;;187.52;0.00;60892.56;4820696;28;20030;-88
2021/12/03 00:44:38;;;;;;;5.50;4.55;;;;;;;-145.06;0.00;60892.56;4819093;28;20105;-88
2021/12/03 00:47:17;;;;;;;7.90;4.82;;;;;;;10.68;0.00;60892.56;4823714;28;20128;-88
2021/12/03 00:49:56;;;;;;;7.88;4.82;;;;;;;-145.06;0.00;60892.56;4832127;28;20048;-89
2021/12/03 00:52:35;;;;;;;6.18;4.35;;;;;;;-145.06;0.00;60892.56;4830694;28;20033;-89
2021/12/03 00:55:14;;;;;;;7.20;3.90;;;;;;;-145.06;0.00;60892.56;4823756;28;20030;-89
2021/12/03 00:57:54;;;;;;;8.43;5.18;;;;;;;-145.06;0.00;60892.56;4820566;28;20034;-89
2021/12/03 01:00:33;;;;;;;8.13;4.72;;;;;;;10.68;0.00;60892.56;4816337;28;20038;-89
2021/12/03 01:03:12;;;;;;;10.38;5.40;;;;;;;-145.06;0.00;60892.56;4817721;28;20038;-89
2021/12/03 01:05:51;;;;;;;9.17;5.60;;;;;;;-145.06;0.00;60892.56;4818127;28;20038;-88
2021/12/03 01:08:31;;;;;;;6.57;4.67;;;;;;;187.52;0.00;60892.56;4823255;28;20261;-87
2021/12/03 01:11:11;;;;;;;6.20;4.13;;;;;;;187.52;0.00;60892.56;4837169;28;20033;-89
2021/12/03 01:13:51;;;;;;;7.38;4.35;;;;;;;-145.06;0.00;60892.56;4812119;28;20034;-89
2021/12/03 01:16:31;;;;;;;5.97;4.38;;;;;;;-145.06;0.00;60892.56;4823418;28;20061;-89
2021/12/03 01:19:10;;;;;;;7.22;4.30;;;;;;;-145.06;0.00;60892.56;4824152;28;20026;-88
2021/12/03 01:21:49;;;;;;;6.78;4.05;;;;;;;-145.06;0.00;60892.56;4844828;28;20060;-89
2021/12/03 01:24:29;;;;;;;7.93;4.53;;;;;;;-145.06;0.00;60892.56;4834097;28;20038;-88
2021/12/03 01:27:07;;;;;;;8.60;5.00;;;;;;;-145.06;0.00;60892.56;4829878;28;20045;-88
2021/12/03 01:29:47;;;;;;;11.20;5.70;;;;;;;-145.06;0.00;60892.56;4818116;28;20276;-89
2021/12/03 01:32:25;;;;;;;8.27;5.47;;;;;;;10.68;0.00;60892.56;4810572;28;20511;-88
2021/12/03 01:35:05;;;;;;;6.78;4.70;;;;;;;-145.06;0.00;60892.56;4839212;28;20780;-86
2021/12/03 01:37:46;;;;;;;7.10;4.57;;;;;;;-145.06;0.00;60892.56;4818747;28;20496;-86
2021/12/03 01:40:28;;;;;;;6.05;4.18;;;;;;;-145.06;0.00;60892.56;4820832;28;20065;-87
2021/12/03 01:43:10;;;;;;;5.30;4.00;;;;;;;-145.06;0.00;60892.56;4838078;28;20628;-87
2021/12/03 01:45:56;;;;;;;6.88;4.57;;;;;;;-145.06;0.00;60892.56;4831509;28;20113;-87
2021/12/03 01:48:36;;;;;;;8.18;4.13;;;;;;;-145.06;0.00;60892.56;4811618;28;20025;-87
2021/12/03 01:51:15;;;;;;;7.88;4.45;;;;;;;10.68;0.00;60892.56;4837101;28;20033;-88
2021/12/03 01:53:55;;;;;;;6.23;4.27;;;;;;;-145.06;0.00;60892.56;4808733;28;20116;-87
2021/12/03 01:56:37;;;;;;;9.07;4.82;;;;;;;-145.06;0.00;60892.56;4822635;28;20264;-87
2021/12/03 01:59:16;;;;;;;6.35;4.15;;;;;;;-145.06;0.00;60892.56;4821020;28;20487;-87
2021/12/03 02:01:55;;;;;;;5.60;3.73;;;;;;;-145.06;0.00;60892.56;4810398;28;20432;-86
2021/12/03 02:04:34;;;;;;;7.90;4.63;;;;;;;-145.06;0.00;60892.56;4820935;28;20030;-87
2021/12/03 02:07:14;;;;;;;7.13;4.20;;;;;;;-145.06;0.00;60892.56;4831552;28;20381;-87
2021/12/03 02:09:53;;;;;;;7.82;4.13;;;;;;;10.68;0.00;60892.56;4830877;28;20025;-88
2021/12/03 02:12:32;;;;;;;6.13;3.60;;;;;;;-145.06;0.00;60892.56;4816934;28;20030;-87
2021/12/03 02:15:12;;;;;;;5.90;4.10;;;;;;;-145.06;0.00;60892.56;4831799;28;20027;-88
2021/12/03 02:17:51;;;;;;;6.05;4.22;;;;;;;4.19;0.00;60892.56;4830160;28;20273;-87
2021/12/03 02:20:32;;;;;;;7.65;4.18;;;;;;;-145.06;0.00;60892.56;4846976;28;20034;-88
2021/12/03 02:23:13;;;;;;;7.13;4.75;;;;;;;-145.06;0.00;60892.56;4828788;28;20112;-86
2021/12/03 02:25:53;;;;;;;7.75;4.70;;;;;;;-145.06;0.00;60892.56;4820875;28;20026;-86
2021/12/03 02:28:36;;;;;;;6.45;3.97;;;;;;;-145.06;0.00;60892.56;4816535;28;20029;-87
2021/12/03 02:31:18;;;;;;;6.43;4.63;;;;;;;-145.06;0.00;60892.56;4834749;28;20495;-87
2021/12/03 02:33:57;;;;;;;9.57;4.82;;;;;;;-145.06;0.00;60892.56;4818749;28;20033;-87
2021/12/03 02:36:36;;;;;;;5.65;4.20;;;;;;;-145.06;0.00;60892.56;4822579;28;20017;-87
2021/12/03 02:39:15;;;;;;;7.47;4.18;;;;;;;-145.06;0.00;60892.56;4813075;28;20038;-87
2021/12/03 02:41:54;;;;;;;8.30;4.55;;;;;;;-145.06;0.00;60892.56;4820242;28;20471;-87
2021/12/03 02:44:33;;;;;;;6.15;4.38;;;;;;;-145.06;0.00;60892.56;4820265;28;20038;-88
2021/12/03 02:47:12;;;;;;;4.97;3.37;;;;;;;-145.06;0.00;60892.56;4815006;28;20037;-89
2021/12/03 02:49:51;;;;;;;5.70;3.63;;;;;;;-145.06;0.00;60892.56;4817967;28;20038;-88
2021/12/03 02:52:30;;;;;;;5.57;3.30;;;;;;;-145.06;0.00;60892.56;4806145;28;20030;-87
2021/12/03 02:55:09;;;;;;;5.67;3.00;;;;;;;-145.06;0.00;60892.56;4838704;28;20025;-86
2021/12/03 02:57:49;;;;;;;7.00;3.80;;;;;;;-145.06;0.00;60892.56;4831338;28;20026;-88
2021/12/03 03:00:28;;;;;;;;;;;;;;;-145.06;0.00;60892.56;4833055;28;20608;-87
2021/12/03 03:03:08;;;;;;;5.93;3.90;;;;;;;-145.06;0.00;60892.56;4817851;28;19917;-87
2021/12/03 03:05:58;;;;;;;6.65;3.97;;;;;;;-145.06;0.00;60892.56;4834207;28;20373;-87
2021/12/03 03:08:40;;;;;;;6.22;3.72;;;;;;;-145.06;0.00;60892.56;4819673;28;20061;-87
2021/12/03 03:11:22;;;;;;;5.45;3.63;;;;;;;-145.06;0.00;60892.56;4821986;28;20042;-88
2021/12/03 03:14:01;;;;;;;7.05;3.83;;;;;;;-145.06;0.00;60892.56;4815688;28;20038;-89
2021/12/03 03:16:41;;;;;;;5.60;3.42;;;;;;;4.19;0.00;60892.56;4831774;28;20113;-87
2021/12/03 03:19:23;;;;;;;4.78;3.20;;;;;;;-145.06;0.00;60892.56;4818326;28;20117;-88
2021/12/03 03:22:02;;;;;;;6.00;3.33;;;;;;;-145.06;0.00;60892.56;4817624;28;20035;-87
2021/12/03 03:24:42;;;;;;;5.10;3.22;;;;;;;4.19;0.00;60892.56;4809490;28;20041;-88
2021/12/03 03:27:21;;;;;;;;;;;;;;;-145.06;0.00;60892.56;4817069;28;20038;-88
2021/12/03 03:30:01;;;;;;;3.67;2.72;;;;;;;10.68;0.00;60892.56;4839629;28;19913;-87
2021/12/03 03:32:41;;;;;;;4.75;2.85;;;;;;;-145.06;0.00;60892.56;4823020;28;20064;-88
2021/12/03 03:35:20;;;;;;;5.30;2.88;;;;;;;-145.06;0.00;60892.56;4821302;28;20439;-88
2021/12/03 03:38:01;;;;;;;5.78;2.83;;;;;;;-145.06;0.00;60892.56;4815782;28;20026;-87
2021/12/03 03:40:41;;;;;;;4.82;3.00;;;;;;;-145.06;0.00;60892.56;4809510;28;20061;-87
2021/12/03 03:43:20;;;;;;;5.32;2.95;;;;;;;-145.06;0.00;60892.56;4808915;28;20034;-87
2021/12/03 03:45:59;;;;;;;4.20;2.93;;;;;;;-145.06;0.00;60892.56;4812207;28;20034;-86
2021/12/03 03:48:38;;;;;;;7.57;3.20;;;;;;;-145.06;0.00;60892.56;4817846;28;20027;-87
2021/12/03 03:51:17;;;;;;;4.45;3.08;;;;;;;-145.06;0.00;60892.56;4816880;28;20483;-87
2021/12/03 03:53:56;;;;;;;5.22;2.80;;;;;;;21.08;0.00;60892.56;4813395;28;20050;-88
2021/12/03 03:56:36;;;;;;;7.65;3.40;;;;;;;-145.06;0.00;60892.56;4813196;28;20065;-87
2021/12/03 03:59:17;;;;;;;5.38;3.40;;;;;;;-145.06;0.00;60892.56;4814743;28;20066;-87
2021/12/03 04:01:56;;;;;;;7.03;3.63;;;;;;;-145.06;0.00;60892.56;4810698;28;20038;-88
2021/12/03 04:04:36;;;;;;;5.57;3.80;;;;;;;-145.06;0.00;60892.56;4816283;28;20077;-87
2021/12/03 04:07:15;;;;;;;7.22;3.78;;;;;;;-145.06;0.00;60892.56;4827380;28;20042;-87
2021/12/03 04:09:54;;;;;;;7.00;4.32;;;;;;;-145.06;0.00;60892.56;4827143;28;20029;-86
2021/12/03 04:12:34;;;;;;;7.60;4.27;;;;;;;-145.06;0.00;60892.56;4829379;28;20034;-87
2021/12/03 04:15:13;;;;;;;;;;;;;;;-145.06;0.00;60892.56;4848998;28;20376;-87
2021/12/03 04:17:52;;;;;;;8.23;4.80;;;;;;;-145.06;0.00;60892.56;4815670;28;20419;-87
2021/12/03 04:20:31;;;;;;;6.28;4.03;;;;;;;-145.06;0.00;60892.56;4826115;28;20033;-87
2021/12/03 04:23:15;;;;;;;6.82;3.97;;;;;;;-145.06;0.00;60892.56;4839996;28;20034;-87
2021/12/03 04:25:54;;;;;;;5.75;3.60;;;;;;;-145.06;0.00;60892.56;4823634;28;20026;-87
2021/12/03 04:28:33;;;;;;;4.90;3.03;;;;;;;-145.06;0.00;60892.56;4810302;28;20033;-87
2021/12/03 04:31:12;;;;;;;5.53;3.17;;;;;;;-145.06;0.00;60892.56;4819989;28;20042;-89
2021/12/03 04:33:51;;;;;;;5.07;3.08;;;;;;;-145.06;0.00;60892.56;4832824;28;20030;-88
2021/12/03 04:36:31;;;;;;;7.63;3.55;;;;;;;10.68;0.00;60892.56;4811096;28;20030;-88
2021/12/03 04:39:12;;;;;;;5.73;3.20;;;;;;;-145.06;0.00;60892.56;4822060;28;20030;-87
2021/12/03 04:41:50;;;;;;;6.13;3.10;;;;;;;-145.06;0.00;60892.56;4823023;28;20269;-87
2021/12/03 04:44:30;;;;;;;5.32;3.22;;;;;;;-145.06;0.00;60892.56;4836113;28;20034;-88
2021/12/03 04:47:09;;;;;;;4.57;2.72;;;;;;;-145.06;0.00;60892.56;4831387;28;20050;-87
2021/12/03 04:49:48;;;;;;;4.00;2.72;;;;;;;-145.06;0.00;60892.56;4812634;28;20037;-87
2021/12/03 04:52:26;;;;;;;5.18;2.75;;;;;;;-145.06;0.00;60892.56;4827663;28;20029;-86
2021/12/03 04:55:08;;;;;;;4.72;2.80;;;;;;;-145.06;0.00;60892.56;4834811;28;20033;-87
2021/12/03 04:57:50;;;;;;;3.03;2.38;;;;;;;-145.06;0.00;60892.56;4816822;28;20614;-87
2021/12/03 05:00:40;;;;;;;5.45;2.97;;;;;;;-145.06;0.00;60892.56;4832063;28;20053;-86
2021/12/03 05:03:24;;;;;;;4.43;2.80;;;;;;;-145.06;0.00;60892.56;4838539;28;20499;-87
2021/12/03 05:06:04;;;;;;;3.72;2.65;;;;;;;-145.06;0.00;60892.56;4821404;28;20033;-86
2021/12/03 05:08:43;;;;;;;;;;;;;;;-145.06;0.00;60892.56;4823762;28;20112;-87
2021/12/03 05:11:22;;;;;;;4.25;2.90;;;;;;;-145.06;0.00;60892.56;4840027;28;19917;-87
2021/12/03 05:14:01;;;;;;;3.20;2.73;;;;;;;-145.06;0.00;60892.56;4826541;28;20125;-87
2021/12/03 05:16:40;;;;;;;3.53;2.53;;;;;;;-145.06;0.00;60892.56;4830843;28;20261;-87
2021/12/03 05:19:19;;;;;;;2.72;2.13;;;;;;;-145.06;0.00;60892.56;4839332;28;20038;-86
2021/12/03 05:21:57;;;;;;;5.32;2.92;;;;;;;-145.06;0.00;60892.56;4826319;28;20440;-87
2021/12/03 05:24:37;;;;;;;6.93;3.72;;;;;;;-145.06;0.00;60892.56;4833443;28;20041;-87
2021/12/03 05:27:18;;;;;;;5.53;3.80;;;;;;;-145.06;0.00;60892.56;4839405;28;20042;-86
2021/12/03 05:29:57;;;;;;;8.52;3.90;;;;;;;-145.06;0.00;60892.56;4836522;28;20038;-86
2021/12/03 05:32:36;;;;;;;8.00;3.85;;;;;;;-145.06;0.00;60892.56;4838305;28;20033;-85
2021/12/03 05:35:16;;;;;;;6.57;3.75;;;;;;;-145.06;0.00;60892.56;4822659;28;20065;-86
2021/12/03 05:37:55;;;;;;;4.28;3.13;;;;;;;-145.06;0.00;60892.56;4841260;28;20034;-86
2021/12/03 05:40:35;;;;;;;6.22;3.58;;;;;;;-145.06;0.00;60892.56;4829743;28;20033;-87
2021/12/03 05:43:13;;;;;;;5.97;3.67;;;;;;;-145.06;0.00;60892.56;4832346;28;20042;-87
2021/12/03 05:45:53;;;;;;;9.93;4.30;;;;;;;-145.06;0.00;60892.56;4817373;28;20065;-87
2021/12/03 05:48:32;;;;;;;10.07;4.70;;;;;;;-145.06;0.00;60892.56;4834215;28;20046;-86
2021/12/03 05:51:11;;;;;;;5.87;3.90;;;;;;;-145.06;0.00;60892.56;4830613;28;20030;-86
2021/12/03 05:53:50;;;;;;;7.88;4.60;;;;;;;-145.06;0.00;60892.56;4815976;28;20476;-87
2021/12/03 05:56:29;;;;;;;7.90;4.50;;;;;;;-145.06;0.00;60892.56;4816309;28;20369;-87
2021/12/03 05:59:08;;;;;;;9.27;4.32;;;;;;;-145.06;0.00;60892.56;4826320;28;20348;-87
2021/12/03 06:01:47;;;;;;;10.53;4.73;;;;;;;-145.06;0.00;60892.56;4818530;28;20033;-86
2021/12/03 06:04:27;;;;;;;6.13;4.63;;;;;;;-145.06;0.00;60892.56;4822885;28;20281;-86
2021/12/03 06:07:07;;;;;;;6.30;4.05;;;;;;;-145.06;0.00;60892.56;4820404;28;20281;-87
2021/12/03 06:09:46;;;;;;;7.32;4.57;;;;;;;-145.06;0.00;60892.56;4816346;28;20149;-85
2021/12/03 06:12:25;;;;;;;6.90;4.07;;;;;;;-145.06;0.00;60892.56;4825523;28;20116;-87
2021/12/03 06:15:04;;;;;;;8.13;4.00;;;;;;;-145.06;0.00;60892.56;4817304;28;20042;-88
2021/12/03 06:17:44;;;;;;;6.32;4.00;;;;;;;-145.06;0.00;60892.56;4828674;28;20026;-88
2021/12/03 06:20:24;;;;;;;9.13;4.03;;;;;;;-145.06;0.00;60892.56;4830610;28;20030;-87
2021/12/03 06:23:03;;;;;;;;;;;;;;;-145.06;0.00;60892.56;4819089;28;20050;-87
2021/12/03 06:25:42;;;;;;;9.13;4.50;;;;;;;-145.06;0.00;60892.56;4841610;28;19913;-87
2021/12/03 06:28:21;;;;;;;8.65;4.63;;;;;;;-145.06;0.00;60892.56;4812982;28;20035;-86
2021/12/03 06:31:00;;;;;;;13.48;4.40;;;;;;;-145.06;0.00;60892.56;4822151;28;20026;-88
2021/12/03 06:33:39;;;;;;;8.68;3.70;;;;;;;-145.06;0.00;60892.56;4814641;28;20034;-86
2021/12/03 06:36:19;;;;;;;6.55;3.55;;;;;;;-145.06;0.00;60892.56;4818033;28;20380;-88
2021/12/03 06:38:58;;;;;;;6.43;3.50;;;;;;;-145.06;0.00;60892.56;4813478;28;20034;-87
2021/12/03 06:41:37;;;;;;;7.35;3.63;;;;;;;-145.06;0.00;60892.56;4827930;28;20041;-85
2021/12/03 06:44:17;;;;;;;7.07;3.67;;;;;;;-145.06;0.00;60892.56;4833854;28;20038;-87
2021/12/03 06:46:56;;;;;;;;;;;;;;;-145.06;0.00;60892.56;4820358;28;22761;-86
2021/12/03 06:49:35;;;;;;;9.80;4.10;;;;;;;-145.06;0.00;60892.56;4826823;28;20350;-88
2021/12/03 06:52:16;;;;;;;6.03;4.00;;;;;;;-145.06;0.00;60892.56;4820900;28;20026;-87
2021/12/03 06:54:58;;;;;;;8.10;4.20;;;;;;;-145.06;0.00;60892.56;4814908;28;20493;-87
2021/12/03 06:57:37;;;;;;;6.65;3.92;;;;;;;-145.06;0.00;60892.56;4817135;28;20064;-86
2021/12/03 07:00:19;;;;;;;8.73;4.20;;;;;;;-145.06;0.00;60892.56;4820313;28;20038;-87
2021/12/03 07:02:58;;;;;;;5.95;3.35;;;;;;;-145.06;0.00;60892.56;4831411;28;20277;-87
2021/12/03 07:05:37;;;;;;;8.53;3.37;;;;;;;-145.06;0.00;60892.56;4820871;28;20042;-87
2021/12/03 07:08:16;;;;;;;4.28;3.00;;;;;;;-145.06;0.00;60892.56;4819368;28;20377;-87
2021/12/03 07:10:55;;;;;;;5.28;3.10;;;;;;;-145.06;0.00;60892.56;4811988;28;20783;-87
2021/12/03 07:13:34;;;;;;;5.63;3.00;;;;;;;-145.06;0.00;60892.56;4811828;28;20042;-87
2021/12/03 07:16:13;;;;;;;6.95;3.13;;;;;;;-145.06;0.00;60892.56;4811241;28;20037;-86
2021/12/03 07:18:52;;;;;;;8.07;3.70;;;;;;;-145.06;0.00;60892.56;4826248;28;20037;-87
2021/12/03 07:21:31;;;;;;;5.30;2.63;;;;;;;-145.06;0.00;60892.56;4809360;28;20037;-87
2021/12/03 07:24:10;;;;;;;5.65;3.08;;;;;;;-145.06;0.00;60892.56;4812730;28;20495;-87
2021/12/03 07:26:49;;;;;;;5.67;2.30;;;;;;;-145.06;0.00;60892.56;4824513;28;20041;-88
2021/12/03 07:29:31;;;;;;;6.20;3.00;;;;;;;-145.06;0.00;60892.56;4828509;28;20817;-87
2021/12/03 07:32:10;;;;;;;5.07;2.60;;;;;;;-145.06;0.00;60892.56;4825156;28;20033;-87
2021/12/03 07:34:50;;;;;;;4.88;2.58;;;;;;;-145.06;0.00;60892.56;4823902;28;20034;-87
2021/12/03 07:37:29;;;;;;;;;;;;;;;-145.06;0.00;60892.56;4816109;28;20488;-88
2021/12/03 07:40:09;;;;;;;3.22;1.83;;;;;;;-145.06;0.00;60892.56;4819330;28;19917;-87
2021/12/03 07:42:48;;;;;;;4.10;2.10;;;;;;;-145.06;0.00;60892.56;4827830;28;20041;-87
2021/12/03 07:45:27;;;;;;;2.03;1.47;;;;;;;-145.06;0.00;60892.56;4828865;28;20030;-88
2021/12/03 07:48:06;;;;;;;2.83;1.73;;;;;;;-145.06;0.00;60892.56;4835996;28;20044;-88
2021/12/03 07:50:45;;;;;;;;;;;;;;;-145.06;0.00;60892.56;4835993;28;20483;-87
2021/12/03 07:53:25;;;;;;;3.63;1.70;;;;;;;-145.06;0.00;60892.56;4807906;28;19913;-87
2021/12/03 07:56:05;;;;;;;4.80;2.20;;;;;;;-145.06;0.00;60892.56;4834440;28;20268;-87
2021/12/03 07:58:43;;;;;;;3.53;1.88;;;;;;;-145.06;0.00;60892.56;4818667;28;20062;-87
2021/12/03 08:01:24;;;;;;;4.13;2.07;;;;;;;-145.06;0.00;60892.56;4829093;28;20064;-87
2021/12/03 08:04:03;;;;;;;4.13;1.73;;;;;;;-145.06;0.00;60892.56;4826209;28;20038;-87
2021/12/03 08:06:43;;;;;;;4.15;1.90;;;;;;;-145.06;0.00;60892.56;4829384;28;20603;-87
2021/12/03 08:09:23;;;;;;;5.10;1.70;;;;;;;-145.06;0.00;60892.56;4833908;28;20496;-87
2021/12/03 08:12:02;;;;;;;2.70;1.40;;;;;;;-145.06;0.00;60892.56;4825129;28;20432;-87
2021/12/03 08:14:41;;;;;;;3.05;1.65;;;;;;;-145.06;0.00;60892.56;4826170;28;20033;-88
2021/12/03 08:17:20;;;;;;;5.13;2.10;;;;;;;-145.06;0.00;60892.56;4810043;28;20026;-87
2021/12/03 08:19:59;;;;;;;5.20;1.53;;;;;;;-145.06;0.00;60892.56;4842946;28;20038;-88
2021/12/03 08:22:41;;;;;;;6.43;1.77;;;;;;;-145.06;0.00;60892.56;4826955;28;20041;-88
2021/12/03 08:25:20;;;;;;;2.92;1.73;;;;;;;-145.06;0.00;60892.56;4844469;28;20038;-86
2021/12/03 08:28:07;;;;;;;5.13;1.70;;;;;;;-145.06;0.00;60892.56;4838375;28;20033;-87
2021/12/03 08:30:46;;;;;;;3.53;1.73;;;;;;;-145.06;0.00;60892.56;4823196;28;20491;-87
2021/12/03 08:33:26;;;;;;;2.65;1.50;;;;;;;-145.06;0.00;60892.56;4824706;28;20034;-87
2021/12/03 08:36:05;;;;;;;2.70;1.45;;;;;;;-145.06;0.00;60892.56;4811012;28;20026;-87
2021/12/03 08:38:45;;;;;;;5.85;1.92;;;;;;;-145.06;0.00;60892.56;4831312;28;20561;-88
2021/12/03 08:41:24;;;;;;;3.45;1.50;;;;;;;-145.06;0.00;60892.56;4846114;28;20049;-88
2021/12/03 08:44:04;;;;;;;5.97;1.70;;;;;;;-145.06;0.00;60892.56;4850777;28;20029;-89
2021/12/03 08:46:43;;;;;;;;;;;;;;;-145.06;0.00;60892.56;4823297;28;20038;-87
2021/12/03 08:49:34;;;;;;;5.67;1.57;;;;;;;-145.06;0.00;60892.56;4830191;28;19914;-88
2021/12/03 08:54:58;;;;;;;3.72;1.40;;;;;;;4.19;0.00;60892.56;4833407;28;20021;-89
2021/12/03 08:57:37;;;;;;;4.60;1.50;;;;;;;-145.06;0.00;60892.56;4824378;28;20025;-89
2021/12/03 09:00:19;;;;;;;4.88;1.75;;;;;;;-145.06;0.00;60892.56;4825241;28;20050;-88
2021/12/03 09:02:58;;;;;;;5.68;1.67;;;;;;;-145.06;0.00;60892.56;4827720;28;20115;-88
2021/12/03 09:05:38;;;;;;;5.03;1.60;;;;;;;-145.06;0.00;60892.56;4823208;28;20026;-88
2021/12/03 09:08:18;;;;;;;3.05;1.60;;;;;;;-145.06;0.00;60892.56;4833053;28;20045;-87
2021/12/03 09:10:57;;;;;;;3.77;1.73;;;;;;;-145.06;0.00;60892.56;4840535;28;20029;-88
2021/12/03 09:13:35;;;;;;;3.53;1.27;;;;;;;-145.06;0.00;60892.56;4845550;28;20543;-88
2021/12/03 09:16:18;;;;;;;4.90;1.70;;;;;;;-145.06;0.00;60892.56;4825366;28;20364;-88
2021/12/03 09:18:59;;;;;;;5.88;1.70;;;;;;;-145.06;0.00;60892.56;4831345;28;20376;-89
2021/12/03 09:21:38;;;;;;;6.97;1.50;;;;;;;-145.06;0.00;60892.56;4827684;28;20033;-88
2021/12/03 09:24:19;;;;;;;5.47;2.10;;;;;;;-145.06;0.00;60892.56;4819670;28;20046;-88
2021/12/03 09:26:58;;;;;;;4.28;1.80;;;;;;;-145.06;0.00;60892.56;4826272;28;20532;-88
2021/12/03 09:29:37;;;;;;;6.17;2.50;;;;;;;-145.06;0.00;60892.56;4818253;28;20037;-89
2021/12/03 09:32:22;;;;;;;5.15;2.30;;;;;;;-145.06;0.00;60892.56;4824662;28;20037;-87
2021/12/03 09:35:03;;;;;;;6.07;2.78;;;;;;;-145.06;0.00;60892.56;4827498;28;20033;-88
2021/12/03 09:37:42;;;;;;;6.95;2.75;;;;;;;-145.06;0.00;60892.56;4823620;28;20034;-88
2021/12/03 09:40:24;;;;;;;5.20;2.38;;;;;;;-145.06;0.00;60892.56;4839044;28;20034;-87
2021/12/03 09:43:05;;;;;;;4.25;2.10;;;;;;;-145.06;0.00;60892.56;4839091;28;20476;-89
2021/12/03 09:45:57;;;;;;;7.90;2.42;;;;;;;-145.06;0.00;60892.56;4833444;28;20030;-88
2021/12/03 09:48:54;;;;;;;7.57;2.08;;;;;;;-145.06;0.00;60892.56;4817618;28;20030;-87
2021/12/03 09:54:51;;;;;;;6.50;2.17;;;;;;;-145.06;0.00;60892.56;4821934;28;20049;-89
2021/12/03 09:57:36;;;;;;;7.63;2.08;;;;;;;-145.06;0.00;60892.56;4820106;28;20026;-89
2021/12/03 10:00:28;;;;;;;4.20;1.77;;;;;;;-145.06;0.00;60892.56;4845503;28;20022;-88
2021/12/03 10:20:32;;;;;;;5.30;1.83;;;;;;;-145.06;0.00;60892.56;4843567;28;20116;-88
2021/12/03 10:29:28;;;;;;;3.85;1.40;;;;;;;-145.06;0.00;60892.56;4829390;28;20476;-88
2021/12/03 10:32:58;;;;;;;4.32;1.52;;;;;;;-145.06;0.00;60892.56;4827724;28;20061;-88
2021/12/03 10:38:24;;;;;;;2.88;1.42;;;;;;;-145.06;0.00;60892.56;4850452;28;20033;-88
2021/12/03 10:52:14;;;;;;;3.60;1.40;;;;;;;-145.06;0.00;60892.56;4848245;28;20017;-88
2021/12/03 10:59:09;;;;;;;4.50;1.60;;;;;;;-145.06;0.00;60892.56;4841181;28;20025;-89
2021/12/03 11:30:22;;;;;;;1.83;1.27;;;;;;;-145.06;0.00;60892.56;4833894;28;20124;-88
2021/12/03 11:39:16;;;;;;;2.80;1.52;;;;;;;-145.06;0.00;60892.56;4819338;28;20035;-88
2021/12/03 12:04:08;;;;;;;3.17;1.42;;;;;;;5.32;0.00;60892.56;4849804;28;20022;-88
2021/12/03 12:40:17;;;;;;;2.85;1.40;;;;;;;-145.06;0.00;60892.56;4820525;28;20034;-88
2021/12/03 14:40:50;;;;;;;1.17;0.80;;;;;;;-145.06;0.00;60892.56;4837673;28;20026;-87
2021/12/03 14:43:40;;;;;;;1.33;1.10;;;;;;;-145.06;0.00;60892.56;4822240;28;20034;-87
2021/12/03 14:46:43;;;;;;;1.67;1.08;;;;;;;-145.06;0.00;60892.56;4821009;28;20030;-87
2021/12/03 14:49:41;;;;;;;1.50;1.00;;;;;;;-145.06;0.00;60892.56;4836341;28;20033;-87
2021/12/03 14:55:06;;;;;;;1.27;1.00;;;;;;;187.52;0.00;60892.56;4838217;28;20021;-88
2021/12/03 14:57:55;;;;;;;1.10;0.80;;;;;;;-145.06;0.00;60892.56;4814616;28;20265;-88
2021/12/03 15:00:49;;;;;;;2.30;1.25;;;;;;;-145.06;0.00;60892.56;4815888;28;20033;-88
2021/12/03 15:15:16;;;;;;;1.70;1.00;;;;;;;-145.06;0.00;60892.56;4830038;28;20034;-88
2021/12/03 15:18:35;;;;;;;2.25;1.10;;;;;;;-145.06;0.00;60892.56;4839976;28;20017;-88
2021/12/03 15:24:31;;;;;;;2.88;1.10;;;;;;;-145.06;0.00;60892.56;4835785;28;20057;-89
2021/12/03 15:35:42;;;;;;;1.02;0.80;;;;;;;-145.06;0.00;60892.56;4837578;28;20018;-89
2021/12/03 15:54:08;;;;;;;1.77;0.80;;;;;;;-145.06;0.00;60892.56;4828085;28;20117;-88
2021/12/03 16:08:16;;;;;;;0.60;0.60;;;;;;;-145.06;0.00;60892.56;4769702;28;20038;-88
2021/12/03 16:22:35;;;;;;;1.40;1.00;;;;;;;-145.06;0.00;60892.56;4835035;28;20034;-88
2021/12/03 16:46:20;;;;;;;1.60;0.90;;;;;;;-145.06;0.00;60892.56;4832012;28;20022;-87
2021/12/03 16:54:31;;;;;;;1.05;0.90;;;;;;;-145.06;0.00;60892.56;4836830;28;20062;-87
2021/12/03 16:57:12;;;;;;;1.27;0.95;;;;;;;-145.06;0.00;60892.56;4820255;28;20029;-87
2021/12/03 16:59:52;;;;;;;1.70;1.02;;;;;;;-145.06;0.00;60892.56;4812083;28;20030;-87
2021/12/03 17:02:35;;;;;;;0.77;0.77;;;;;;;-145.06;0.00;60892.56;4820116;28;20041;-88
2021/12/03 17:05:26;;;;;;;0.93;0.75;;;;;;;-145.06;0.00;60892.56;4815979;28;20034;-88
2021/12/03 17:08:59;;;;;;;0.77;0.73;;;;;;;-145.06;0.00;60892.56;4813678;28;20026;-88
2021/12/03 17:12:00;;;;;;;0.80;0.80;;;;;;;-145.06;0.00;60892.56;4828607;28;20492;-87
2021/12/03 17:44:33;;;;;;;1.10;0.70;;;;;;;-145.06;0.00;60892.56;4821992;28;20038;-86
2021/12/03 17:46:59;;;;;;;0.65;0.60;;;;;;;-145.06;0.00;60892.56;4824507;28;20137;-87
2021/12/03 17:49:14;;;;;;;0.60;0.60;;;;;;;-145.06;0.00;60892.56;4819330;28;20073;-88
2021/12/03 17:52:09;;;;;;;1.27;0.63;;;;;;;-145.06;0.00;60892.56;4807894;28;20034;-88
2021/12/03 18:00:40;;;;;;;0.75;0.60;;;;;;;-145.06;0.00;60892.56;4825439;28;20388;-87
2021/12/03 18:07:02;;;;;;;0.43;0.43;;;;;;;-145.06;0.00;60892.56;4779764;28;20539;-87
2021/12/03 18:16:15;;;;;;;0.40;0.40;;;;;;;-145.06;0.00;60892.56;4822179;28;20029;-87
2021/12/03 18:48:46;;;;;;;0.40;0.40;;;;;;;-145.06;0.00;60892.56;4818508;28;20073;-88
2021/12/03 18:53:47;;;;;;;0.30;0.30;;;;;;;-145.06;0.00;60892.56;4821902;28;20037;-88
2021/12/03 18:56:37;;;;;;;0.40;0.40;;;;;;;-145.06;0.00;60892.56;4802561;28;20042;-87
2021/12/03 18:59:16;;;;;;;0.47;0.40;;;;;;;-145.06;0.00;60892.56;4820910;28;20109;-87
2021/12/03 19:01:55;;;;;;;0.30;0.30;;;;;;;-145.06;0.00;60892.56;4802987;28;20050;-86
2021/12/03 19:05:14;;;;;;;0.50;0.35;;;;;;;-145.06;0.00;60892.56;4800336;28;20042;-88
2021/12/03 19:10:25;;;;;;;0.50;0.40;;;;;;;-145.06;0.00;60892.56;4820560;28;20432;-86
2021/12/03 19:13:09;;;;;;;0.40;0.40;;;;;;;-145.06;0.00;60892.56;4820397;28;20072;-88
2021/12/03 19:15:49;;;;;;;0.30;0.30;;;;;;;-145.06;0.00;60892.56;4802155;28;20022;-87
2021/12/03 19:18:29;;;;;;;0.32;0.30;;;;;;;-145.06;0.00;60892.56;4807822;28;20030;-88
2021/12/03 19:21:11;;;;;;;0.40;0.40;;;;;;;-145.06;0.00;60892.56;4805010;28;20033;-86
2021/12/03 19:24:01;;;;;;;0.30;0.30;;;;;;;-145.06;0.00;60892.56;4819353;28;20046;-87
2021/12/03 19:26:45;;;;;;;0.40;0.40;;;;;;;-145.06;0.00;60892.56;4805344;28;20096;-86
2021/12/03 19:29:24;;;;;;;0.25;0.25;;;;;;;-145.06;0.00;60892.56;4819146;28;20038;-86
2021/12/03 19:32:05;;;;;;;0.40;0.40;;;;;;;-145.06;0.00;60892.56;4812395;28;20037;-87
2021/12/03 19:34:44;;;;;;;0.40;0.40;;;;;;;-145.06;0.00;60892.56;4809347;28;20046;-87
2021/12/03 19:37:25;;;;;;;0.30;0.30;;;;;;;-145.06;0.00;60892.56;4828151;28;20030;-87
2021/12/03 19:40:08;;;;;;;0.30;0.30;;;;;;;-145.06;0.00;60892.56;4817019;28;20042;-88
2021/12/03 19:42:56;;;;;;;0.30;0.30;;;;;;;-145.06;0.00;60892.56;4807934;28;20038;-88